This is the latest recevied weather packets stored in our database for station/object YU4PTT-8. If no packets are shown the sender has not sent any weather packets the latest 10 day(s).
| Time | Temp. | Humidity | Pressure | Rain* | Wind** | Luminosity | Snow |
|---|---|---|---|---|---|---|---|
| 1777725500 | 10.56° C | 59% | 1010.1 hPa | 0 mm | 3.58 m/s, 315° | - | - |
| 1777723100 | 10° C | 56% | 1010.4 hPa | 0 mm | 2.24 m/s, 315° | - | - |
| 1777720730 | 10° C | 54% | 1010.5 hPa | 0 mm | 2.68 m/s, 0° | - | - |
| 1777718900 | 10° C | 53% | 1010.7 hPa | 0 mm | 3.13 m/s, 0° | - | - |
| 1777716500 | 9.44° C | 56% | 1010.5 hPa | 0 mm | 3.13 m/s, 68° | - | - |
| 1777714130 | 9.44° C | 56% | 1011.1 hPa | 0 mm | 2.68 m/s, 338° | - | - |
| 1777712300 | 8.89° C | 56% | 1011.2 hPa | 0 mm | 3.13 m/s, 338° | - | - |
| 1777709945 | 8.33° C | 52% | 1011.1 hPa | 0 mm | 1.79 m/s, 338° | - | - |
| 1777708100 | 8.33° C | 55% | 1010.8 hPa | 0 mm | 3.58 m/s, 315° | - | - |
| 1777705729 | 7.78° C | 53% | 1011.1 hPa | 0 mm | 2.68 m/s, 338° | - | - |
| 1777703900 | 7.78° C | 54% | 1010.8 hPa | 0 mm | 2.24 m/s, 338° | - | - |
| 1777701499 | 6.67° C | 57% | 1010.9 hPa | 0 mm | 3.13 m/s, 315° | - | - |
| 1777699101 | 6.67° C | 55% | 1010.8 hPa | 0 mm | 2.24 m/s, 338° | - | - |
| 1777696699 | 5.56° C | 57% | 1010.5 hPa | 0 mm | 2.68 m/s, 338° | - | - |
| 1777694300 | 4.44° C | 60% | 1010.4 hPa | 0 mm | 2.68 m/s, 315° | - | - |
| 1777691929 | 4.44° C | 59% | 1010.3 hPa | 0 mm | 1.79 m/s, 315° | - | - |
| 1777690099 | 4.44° C | 60% | 1010.3 hPa | 0 mm | 1.79 m/s, 338° | - | - |
| 1777687699 | 4.44° C | 59% | 1010.5 hPa | 0 mm | 1.34 m/s, 0° | - | - |
| 1777685299 | 4.44° C | 59% | 1010.5 hPa | 0 mm | 0.89 m/s, 0° | - | - |
| 1777682899 | 4.44° C | 59% | 1010.5 hPa | 0 mm | 0.89 m/s, 0° | - | - |
| 1777680499 | 4.44° C | 60% | 1010.7 hPa | 0 mm | 0 m/s | - | - |
| 1777678099 | 4.44° C | 60% | 1010.9 hPa | 0 mm | 0 m/s | - | - |
| 1777675700 | 4.44° C | 60% | 1011.3 hPa | 0 mm | 0.45 m/s, 0° | - | - |
| 1777673300 | 4.44° C | 61% | 1011.4 hPa | 0 mm | 0.45 m/s, 0° | - | - |
| 1777670899 | 4.44° C | 61% | 1011.3 hPa | 0 mm | 1.34 m/s, 0° | - | - |
* Rain latest hour (hover to see other rain measurements)
** Current wind speed in m/s (hover to see current wind gust speed)